Time;durP1;ratioP1;P1;durP2;ratioP2;P2;SDS_P1;SDS_P2;PMS_P1;PMS_P2;Temp;Humidity;BMP_temperature;BMP_pressure;BME280_temperature;BME280_humidity;BME280_pressure;Samples;Min_cycle;Max_cycle;Signal;HPM_P1;HPM_P2
2022/01/21 00:00:47;;;;;;;;;;;3.60;99.90;;;;;;5132894;27;19964;-78
2022/01/21 00:03:13;;;;;;;;;;;3.60;99.90;;;;;;5133016;27;19927;-78
2022/01/21 00:05:39;;;;;;;;;;;3.60;99.90;;;;;;5115914;27;19931;-77
2022/01/21 00:08:04;;;;;;;;;;;3.60;99.90;;;;;;5116427;27;20431;-77
2022/01/21 00:10:30;;;;;;;;;;;3.60;99.90;;;;;;5134003;27;20256;-77
2022/01/21 00:12:57;;;;;;;;;;;3.70;99.90;;;;;;5099286;28;19924;-77
2022/01/21 00:15:23;;;;;;;;;;;3.80;99.90;;;;;;5116010;28;20411;-78
2022/01/21 00:17:48;;;;;;;;;;;3.80;99.90;;;;;;5096166;28;19923;-77
2022/01/21 00:31:11;;;;;;;;;;;3.60;99.90;;;;;;5133359;28;19930;-77
2022/01/21 00:33:36;;;;;;;;;;;3.50;99.90;;;;;;5133027;28;19927;-78
2022/01/21 00:36:02;;;;;;;;;;;3.50;99.90;;;;;;5114630;27;19931;-79
2022/01/21 00:38:30;;;;;;;;;;;3.40;99.90;;;;;;5136634;27;19930;-78
2022/01/21 00:40:59;;;;;;;;;;;3.50;99.90;;;;;;5119120;27;19930;-86
2022/01/21 00:43:32;;;;;;;;;;;3.70;99.90;;;;;;5136963;27;19924;-77
2022/01/21 00:45:58;;;;;;;;;;;3.90;99.90;;;;;;5137223;27;19924;-77
2022/01/21 00:48:24;;;;;;;;;;;4.00;99.90;;;;;;5137012;27;20355;-77
2022/01/21 00:50:50;;;;;;;;;;;4.20;99.90;;;;;;5119118;27;20018;-77
2022/01/21 00:53:15;;;;;;;;;;;4.20;99.90;;;;;;5136371;27;19928;-77
2022/01/21 00:55:41;;;;;;;;;;;4.30;99.90;;;;;;5119258;27;20776;-77
2022/01/21 00:58:07;;;;;;;;;;;4.40;99.90;;;;;;5136600;27;19928;-80
2022/01/21 01:00:32;;;;;;;;;;;4.30;99.90;;;;;;5136479;27;19935;-77
2022/01/21 01:02:59;;;;;;;;;;;4.20;99.90;;;;;;5118977;27;19923;-83
2022/01/21 01:05:25;;;;;;;;;;;4.10;99.90;;;;;;5115702;28;20376;-78
2022/01/21 01:07:51;;;;;;;;;;;4.00;99.90;;;;;;5103291;27;20056;-78
2022/01/21 01:10:24;;;;;;;;;;;3.90;99.90;;;;;;5102767;28;20295;-78
2022/01/21 01:19:52;;;;;;;;;;;3.90;99.90;;;;;;5116186;28;20006;-78
2022/01/21 01:21:11;;;;;;;;;;;3.90;99.90;;;;;;5101384;27;19924;-78
2022/01/21 01:23:50;;;;;;;;;;;3.90;99.90;;;;;;5099233;28;19931;-78
2022/01/21 01:28:59;;;;;;;;;;;4.10;99.90;;;;;;5134570;27;19970;-78
2022/01/21 01:31:25;;;;;;;;;;;4.20;99.90;;;;;;5115841;28;19993;-78
2022/01/21 01:33:51;;;;;;;;;;;4.00;99.90;;;;;;5098979;28;19924;-78
2022/01/21 01:36:16;;;;;;;;;;;4.00;99.90;;;;;;5115361;28;20279;-78
2022/01/21 01:41:32;;;;;;;;;;;4.00;99.90;;;;;;5115697;28;20393;-77
2022/01/21 01:49:37;;;;;;;;;;;4.20;99.90;;;;;;5131910;27;19976;-78
2022/01/21 01:52:08;;;;;;;;;;;4.30;99.90;;;;;;5120387;27;19934;-78
2022/01/21 01:54:36;;;;;;;;;;;4.30;99.90;;;;;;5118839;27;19927;-77
2022/01/21 01:57:01;;;;;;;;;;;4.40;99.90;;;;;;5136010;27;19927;-78
2022/01/21 01:59:27;;;;;;;;;;;4.40;99.90;;;;;;5118551;27;19924;-80
2022/01/21 02:01:54;;;;;;;;;;;4.30;99.90;;;;;;5118816;27;19976;-79
2022/01/21 02:04:20;;;;;;;;;;;4.30;99.90;;;;;;5135879;27;19930;-78
2022/01/21 02:06:45;;;;;;;;;;;4.30;99.90;;;;;;5136097;27;19923;-80
2022/01/21 02:09:11;;;;;;;;;;;4.30;99.90;;;;;;5118612;27;19931;-80
2022/01/21 02:11:36;;;;;;;;;;;4.30;99.90;;;;;;5101656;27;19923;-80
2022/01/21 02:14:07;;;;;;;;;;;4.20;99.90;;;;;;5101638;27;20033;-81
2022/01/21 02:16:54;;;;;;;;;;;4.20;99.90;;;;;;5118051;27;19928;-80
2022/01/21 02:22:03;;;;;;;;;;;4.10;99.90;;;;;;5135918;27;19946;-78
2022/01/21 02:24:41;;;;;;;;;;;4.10;99.90;;;;;;5118306;27;19919;-77
2022/01/21 02:27:06;;;;;;;;;;;4.00;99.90;;;;;;5135254;27;19923;-77
2022/01/21 02:29:43;;;;;;;;;;;4.10;99.90;;;;;;5118086;27;20005;-78
2022/01/21 02:32:09;;;;;;;;;;;4.10;99.90;;;;;;5118290;27;19927;-79
2022/01/21 02:34:35;;;;;;;;;;;4.00;99.90;;;;;;5117961;27;19934;-79
2022/01/21 02:37:00;;;;;;;;;;;4.00;99.90;;;;;;5101395;27;19985;-79
2022/01/21 02:39:26;;;;;;;;;;;4.00;99.90;;;;;;5117438;27;19930;-80
2022/01/21 02:41:51;;;;;;;;;;;3.90;99.90;;;;;;5117848;27;19931;-79
2022/01/21 02:44:18;;;;;;;;;;;3.90;99.90;;;;;;5117407;27;19931;-79
2022/01/21 02:46:45;;;;;;;;;;;3.90;99.90;;;;;;5117545;27;19923;-79
2022/01/21 02:49:10;;;;;;;;;;;3.90;99.90;;;;;;5119948;27;19923;-83
2022/01/21 02:51:36;;;;;;;;;;;3.80;99.90;;;;;;5117792;27;19930;-77
2022/01/21 02:54:05;;;;;;;;;;;3.80;99.90;;;;;;5117975;27;19927;-78
2022/01/21 02:56:31;;;;;;;;;;;3.90;99.90;;;;;;5117291;27;20349;-79
2022/01/21 02:58:57;;;;;;;;;;;3.90;99.90;;;;;;5116743;27;19978;-79
2022/01/21 03:01:23;;;;;;;;;;;3.90;99.90;;;;;;5117252;27;19962;-79
2022/01/21 03:03:49;;;;;;;;;;;3.90;99.90;;;;;;5134553;27;20268;-80
2022/01/21 03:06:15;;;;;;;;;;;3.90;99.90;;;;;;5133968;27;19924;-79
2022/01/21 03:08:42;;;;;;;;;;;4.00;99.90;;;;;;5113880;28;19924;-79
2022/01/21 03:11:08;;;;;;;;;;;4.00;99.90;;;;;;5108753;27;19923;-80
2022/01/21 03:13:34;;;;;;;;;;;4.00;99.90;;;;;;5099287;27;19948;-80
2022/01/21 03:15:59;;;;;;;;;;;4.00;99.90;;;;;;5116263;27;20473;-79
2022/01/21 03:18:25;;;;;;;;;;;4.00;99.90;;;;;;5099363;27;19931;-81
2022/01/21 03:20:50;;;;;;;;;;;4.00;99.90;;;;;;5112565;28;19967;-79
2022/01/21 03:23:18;;;;;;;;;;;4.00;99.90;;;;;;5096009;28;19931;-79
2022/01/21 03:25:46;;;;;;;;;;;4.00;99.90;;;;;;5113617;28;19923;-78
2022/01/21 03:28:13;;;;;;;;;;;3.90;99.90;;;;;;5115399;27;20014;-79
2022/01/21 03:30:38;;;;;;;;;;;3.90;99.90;;;;;;5116184;27;20347;-79
2022/01/21 03:33:04;;;;;;;;;;;3.90;99.90;;;;;;5099454;27;19974;-79
2022/01/21 03:35:30;;;;;;;;;;;4.00;99.90;;;;;;5098764;27;19929;-79
2022/01/21 03:37:55;;;;;;;;;;;4.10;99.90;;;;;;5099403;27;19924;-79
2022/01/21 03:40:21;;;;;;;;;;;4.00;99.90;;;;;;5098925;27;19969;-79
2022/01/21 03:42:47;;;;;;;;;;;4.00;99.90;;;;;;5133946;27;19973;-79
2022/01/21 03:45:14;;;;;;;;;;;4.00;99.90;;;;;;5133989;27;19934;-79
2022/01/21 03:47:40;;;;;;;;;;;3.90;99.90;;;;;;5116678;27;19978;-79
2022/01/21 03:50:21;;;;;;;;;;;3.80;99.90;;;;;;5133949;27;19923;-79
2022/01/21 03:52:47;;;;;;;;;;;3.70;99.90;;;;;;5116317;27;19928;-79
2022/01/21 03:55:13;;;;;;;;;;;3.70;99.90;;;;;;5112714;28;19989;-78
2022/01/21 03:57:39;;;;;;;;;;;3.70;99.90;;;;;;5096134;28;19934;-79
2022/01/21 04:00:09;;;;;;;;;;;3.70;99.90;;;;;;5096321;28;19954;-79
2022/01/21 04:02:34;;;;;;;;;;;3.70;99.90;;;;;;5129055;27;20010;-79
2022/01/21 04:05:00;;;;;;;;;;;3.80;99.90;;;;;;5116302;28;20411;-79
2022/01/21 04:07:25;;;;;;;;;;;3.70;99.90;;;;;;5133187;27;19927;-79
2022/01/21 04:09:51;;;;;;;;;;;3.70;99.90;;;;;;5116152;27;19930;-79
2022/01/21 04:12:16;;;;;;;;;;;3.80;99.90;;;;;;5133680;27;19934;-79
2022/01/21 04:14:42;;;;;;;;;;;3.80;99.90;;;;;;5116299;27;19968;-79
2022/01/21 04:17:08;;;;;;;;;;;3.70;99.90;;;;;;5119602;27;20340;-79
2022/01/21 04:19:33;;;;;;;;;;;3.70;99.90;;;;;;5119737;27;19923;-79
2022/01/21 04:21:59;;;;;;;;;;;3.70;99.90;;;;;;5136771;27;19949;-78
2022/01/21 04:24:24;;;;;;;;;;;3.70;99.90;;;;;;5119193;27;19923;-78
2022/01/21 04:26:50;;;;;;;;;;;3.90;99.90;;;;;;5118399;27;19930;-76
2022/01/21 04:29:16;;;;;;;;;;;4.00;99.90;;;;;;5136434;27;19930;-76
2022/01/21 04:31:41;;;;;;;;;;;4.00;99.90;;;;;;5136350;27;19930;-76
2022/01/21 04:34:07;;;;;;;;;;;3.90;99.90;;;;;;5119266;27;19927;-77
2022/01/21 04:36:34;;;;;;;;;;;3.90;99.90;;;;;;5119024;27;20371;-76
2022/01/21 04:39:01;;;;;;;;;;;3.80;99.90;;;;;;5136297;27;19930;-76
2022/01/21 04:49:39;;;;;;;;;;;3.80;99.90;;;;;;5135507;27;19983;-76
2022/01/21 04:52:05;;;;;;;;;;;3.80;99.90;;;;;;5116347;27;19972;-78
2022/01/21 04:54:32;;;;;;;;;;;3.80;99.90;;;;;;5116390;27;19931;-77
2022/01/21 04:56:57;;;;;;;;;;;3.80;99.90;;;;;;5134619;27;19972;-77
2022/01/21 04:59:23;;;;;;;;;;;3.90;99.90;;;;;;5113956;27;20434;-77
2022/01/21 05:01:48;;;;;;;;;;;3.90;99.90;;;;;;5113594;27;19923;-81
2022/01/21 05:04:14;;;;;;;;;;;3.90;99.90;;;;;;5133382;27;19923;-84
2022/01/21 05:06:41;;;;;;;;;;;4.00;99.90;;;;;;5134091;27;19930;-78
2022/01/21 05:09:06;;;;;;;;;;;4.00;99.90;;;;;;5098757;28;19923;-78
2022/01/21 05:11:37;;;;;;;;;;;4.00;99.90;;;;;;5136173;27;19923;-78
2022/01/21 05:14:25;;;;;;;;;;;4.00;99.90;;;;;;5136455;27;19927;-77
2022/01/21 05:16:59;;;;;;;;;;;3.90;99.90;;;;;;5135555;27;19923;-78
2022/01/21 05:19:25;;;;;;;;;;;3.80;99.90;;;;;;5120554;27;19923;-80
2022/01/21 05:21:50;;;;;;;;;;;3.70;99.90;;;;;;5136378;27;19930;-78
2022/01/21 05:24:17;;;;;;;;;;;3.70;99.90;;;;;;5122997;27;20275;-78
2022/01/21 05:26:52;;;;;;;;;;;3.60;99.90;;;;;;5139893;27;19977;-77
2022/01/21 05:29:19;;;;;;;;;;;3.50;99.90;;;;;;5124454;27;20279;-77
2022/01/21 05:31:44;;;;;;;;;;;3.60;99.90;;;;;;5139871;27;19923;-78
2022/01/21 05:34:10;;;;;;;;;;;3.60;99.90;;;;;;5122933;27;19975;-78
2022/01/21 05:36:40;;;;;;;;;;;3.70;99.90;;;;;;5139256;27;19975;-77
2022/01/21 05:39:06;;;;;;;;;;;3.80;99.90;;;;;;5122802;27;19923;-77
2022/01/21 05:41:31;;;;;;;;;;;3.80;99.90;;;;;;5122524;27;20406;-78
2022/01/21 05:44:04;;;;;;;;;;;4.00;99.90;;;;;;5139652;27;19923;-78
2022/01/21 05:49:05;;;;;;;;;;;4.00;99.90;;;;;;5119167;27;19931;-78
2022/01/21 05:51:30;;;;;;;;;;;4.10;99.90;;;;;;5101936;27;19923;-81
2022/01/21 05:53:56;;;;;;;;;;;4.00;99.90;;;;;;5129813;27;19923;-79
2022/01/21 05:56:24;;;;;;;;;;;4.10;99.90;;;;;;5121355;27;20294;-78
2022/01/21 05:58:50;;;;;;;;;;;4.10;99.90;;;;;;5117900;27;20569;-78
2022/01/21 06:01:16;;;;;;;;;;;4.20;99.90;;;;;;5118735;27;19931;-78
2022/01/21 06:03:41;;;;;;;;;;;4.20;99.90;;;;;;5121003;27;19923;-78
2022/01/21 06:06:08;;;;;;;;;;;4.10;99.90;;;;;;5138827;27;19923;-80
2022/01/21 06:08:33;;;;;;;;;;;4.10;99.90;;;;;;5117585;27;19935;-78
2022/01/21 06:10:59;;;;;;;;;;;4.10;99.90;;;;;;5118277;27;19923;-78
2022/01/21 06:13:24;;;;;;;;;;;4.20;99.90;;;;;;5118661;27;19966;-78
2022/01/21 06:15:50;;;;;;;;;;;4.10;99.90;;;;;;5123687;27;19930;-78
2022/01/21 06:18:16;;;;;;;;;;;4.10;99.90;;;;;;5121138;27;19931;-78
2022/01/21 06:20:41;;;;;;;;;;;4.00;99.90;;;;;;5121655;27;19923;-78
2022/01/21 06:23:07;;;;;;;;;;;4.00;99.90;;;;;;5138915;27;20282;-78
2022/01/21 06:25:33;;;;;;;;;;;4.00;99.90;;;;;;5135349;27;19975;-82
2022/01/21 06:27:58;;;;;;;;;;;4.00;99.90;;;;;;5135779;27;19930;-78
2022/01/21 06:30:24;;;;;;;;;;;4.00;99.90;;;;;;5138507;27;19930;-78
2022/01/21 06:32:49;;;;;;;;;;;3.90;99.90;;;;;;5138275;27;19919;-79
2022/01/21 06:35:15;;;;;;;;;;;4.00;99.90;;;;;;5136762;27;19946;-79
2022/01/21 06:37:40;;;;;;;;;;;3.90;99.90;;;;;;5119302;27;19971;-78
2022/01/21 06:40:07;;;;;;;;;;;4.00;99.90;;;;;;5137143;27;20709;-78
2022/01/21 06:42:33;;;;;;;;;;;4.00;99.90;;;;;;5138371;27;19926;-78
2022/01/21 06:45:00;;;;;;;;;;;4.00;99.90;;;;;;5120686;27;20026;-79
2022/01/21 06:47:26;;;;;;;;;;;4.00;99.90;;;;;;5119848;27;20375;-78
2022/01/21 06:49:52;;;;;;;;;;;4.10;99.90;;;;;;5136612;27;20010;-78
2022/01/21 06:52:17;;;;;;;;;;;4.20;99.90;;;;;;5137565;27;19923;-79
2022/01/21 06:54:43;;;;;;;;;;;4.10;99.90;;;;;;5137837;27;20324;-77
2022/01/21 06:57:08;;;;;;;;;;;4.20;99.90;;;;;;5121431;27;19980;-79
2022/01/21 06:59:34;;;;;;;;;;;4.30;99.90;;;;;;5138362;27;19930;-78
2022/01/21 07:02:00;;;;;;;;;;;4.30;99.90;;;;;;5138144;27;19978;-78
2022/01/21 07:04:26;;;;;;;;;;;4.40;99.90;;;;;;5120926;27;20059;-78
2022/01/21 07:06:51;;;;;;;;;;;4.40;99.90;;;;;;5137357;27;19923;-78
2022/01/21 07:09:17;;;;;;;;;;;4.50;99.90;;;;;;5086044;27;19985;-79
2022/01/21 07:11:42;;;;;;;;;;;4.50;99.90;;;;;;5136647;27;19926;-79
2022/01/21 07:14:08;;;;;;;;;;;4.40;99.90;;;;;;5136968;27;19968;-79
2022/01/21 07:16:33;;;;;;;;;;;4.60;99.90;;;;;;5119785;27;19923;-78
2022/01/21 07:18:59;;;;;;;;;;;4.50;99.90;;;;;;5119557;27;19968;-78
2022/01/21 07:21:25;;;;;;;;;;;4.50;99.90;;;;;;5094974;27;19923;-78
2022/01/21 07:23:50;;;;;;;;;;;4.60;99.90;;;;;;5125770;27;19927;-79
2022/01/21 07:26:16;;;;;;;;;;;4.50;99.90;;;;;;5103616;27;20010;-78
2022/01/21 07:28:42;;;;;;;;;;;4.50;99.90;;;;;;5114811;27;19930;-78
2022/01/21 07:31:07;;;;;;;;;;;4.50;99.90;;;;;;5118956;27;19923;-78
2022/01/21 07:33:33;;;;;;;;;;;4.60;99.90;;;;;;5103654;27;19927;-78
2022/01/21 07:35:59;;;;;;;;;;;4.70;99.90;;;;;;5120055;27;20363;-78
2022/01/21 07:38:24;;;;;;;;;;;4.80;99.90;;;;;;5131180;27;19923;-80
2022/01/21 07:40:50;;;;;;;;;;;4.80;99.90;;;;;;5132810;27;19923;-78
2022/01/21 07:43:16;;;;;;;;;;;4.80;99.90;;;;;;5100182;27;19923;-78
2022/01/21 07:45:41;;;;;;;;;;;4.80;99.90;;;;;;5136342;27;19926;-84
2022/01/21 07:48:07;;;;;;;;;;;4.80;99.90;;;;;;5103310;27;19946;-78
2022/01/21 07:50:34;;;;;;;;;;;4.90;99.90;;;;;;5130689;27;19962;-78
2022/01/21 07:52:59;;;;;;;;;;;4.90;99.90;;;;;;5102266;27;19923;-78
2022/01/21 07:55:25;;;;;;;;;;;4.90;99.90;;;;;;5120013;27;19923;-78
2022/01/21 07:57:50;;;;;;;;;;;5.00;99.90;;;;;;5133037;27;19928;-77
2022/01/21 08:00:16;;;;;;;;;;;4.80;99.90;;;;;;5114244;27;19985;-76
2022/01/21 08:02:42;;;;;;;;;;;4.80;99.90;;;;;;5137013;27;19923;-76
2022/01/21 08:05:07;;;;;;;;;;;4.80;99.90;;;;;;5136771;27;19925;-77
2022/01/21 08:07:33;;;;;;;;;;;4.80;99.90;;;;;;5131821;27;19974;-77
2022/01/21 08:09:59;;;;;;;;;;;4.80;99.90;;;;;;5136336;27;20071;-77
2022/01/21 08:12:24;;;;;;;;;;;4.80;99.90;;;;;;5136966;27;19968;-77
2022/01/21 08:14:50;;;;;;;;;;;4.80;99.90;;;;;;5119834;27;19923;-77
2022/01/21 08:17:15;;;;;;;;;;;4.80;99.90;;;;;;5134793;27;19930;-79
2022/01/21 08:19:41;;;;;;;;;;;4.70;99.90;;;;;;5115661;28;19928;-78
2022/01/21 08:22:06;;;;;;;;;;;4.70;99.90;;;;;;5099339;28;19927;-78
2022/01/21 08:24:32;;;;;;;;;;;4.70;99.90;;;;;;5106642;27;20435;-79
2022/01/21 08:26:58;;;;;;;;;;;4.80;99.90;;;;;;5136473;27;20356;-77
2022/01/21 08:29:23;;;;;;;;;;;4.80;99.90;;;;;;5119447;27;19946;-77
2022/01/21 08:31:49;;;;;;;;;;;5.00;99.90;;;;;;5119786;27;20352;-77
2022/01/21 08:34:15;;;;;;;;;;;5.00;99.90;;;;;;5119928;27;20010;-77
2022/01/21 08:36:40;;;;;;;;;;;5.10;99.90;;;;;;5136361;27;19936;-77
2022/01/21 08:39:06;;;;;;;;;;;5.10;99.90;;;;;;5102527;27;19923;-77
2022/01/21 08:41:33;;;;;;;;;;;5.20;99.90;;;;;;5119845;27;19931;-78
2022/01/21 08:43:58;;;;;;;;;;;5.30;99.90;;;;;;5132316;27;19962;-76
2022/01/21 08:46:24;;;;;;;;;;;5.30;99.90;;;;;;5109941;28;20031;-77
2022/01/21 08:48:50;;;;;;;;;;;5.40;99.90;;;;;;5135075;27;19923;-77
2022/01/21 08:51:24;;;;;;;;;;;5.40;99.90;;;;;;5118725;27;19974;-80
2022/01/21 08:53:49;;;;;;;;;;;5.40;99.90;;;;;;5118744;27;19948;-77
2022/01/21 08:56:16;;;;;;;;;;;5.50;99.90;;;;;;5136393;27;19923;-76
2022/01/21 08:58:42;;;;;;;;;;;5.50;99.90;;;;;;5119786;27;19927;-78
2022/01/21 09:01:09;;;;;;;;;;;5.50;99.90;;;;;;5154124;27;20344;-91
2022/01/21 09:03:36;;;;;;;;;;;5.50;99.90;;;;;;5140014;27;19931;-85
2022/01/21 09:06:02;;;;;;;;;;;5.60;99.90;;;;;;5140000;27;19930;-85
2022/01/21 09:08:30;;;;;;;;;;;5.60;99.90;;;;;;5140294;27;20013;-79
2022/01/21 09:10:57;;;;;;;;;;;5.60;99.90;;;;;;5139733;27;20321;-78
2022/01/21 09:13:25;;;;;;;;;;;5.60;99.90;;;;;;5120302;27;19926;-79
2022/01/21 09:15:51;;;;;;;;;;;5.60;99.90;;;;;;5139307;27;20298;-79
2022/01/21 09:18:19;;;;;;;;;;;5.70;99.90;;;;;;5123263;27;19923;-79
2022/01/21 09:20:45;;;;;;;;;;;5.80;99.90;;;;;;5123027;27;20014;-80
2022/01/21 09:23:11;;;;;;;;;;;5.90;99.90;;;;;;5139223;27;20785;-78
2022/01/21 09:25:36;;;;;;;;;;;6.00;99.90;;;;;;5140065;27;19930;-79
2022/01/21 09:28:02;;;;;;;;;;;6.20;99.90;;;;;;5138522;27;20278;-79
2022/01/21 09:30:28;;;;;;;;;;;6.20;99.90;;;;;;5122103;27;19945;-78
2022/01/21 09:32:54;;;;;;;;;;;6.20;99.90;;;;;;5139502;27;20423;-78
2022/01/21 09:35:19;;;;;;;;;;;6.20;99.90;;;;;;5122944;27;20015;-78
2022/01/21 09:37:45;;;;;;;;;;;6.30;99.90;;;;;;5139689;27;20380;-79
2022/01/21 09:40:11;;;;;;;;;;;6.30;99.90;;;;;;5139725;27;20004;-80
2022/01/21 09:42:37;;;;;;;;;;;6.30;99.90;;;;;;5122814;27;19923;-79
2022/01/21 09:45:08;;;;;;;;;;;6.30;99.90;;;;;;5121931;27;19950;-81
2022/01/21 09:47:44;;;;;;;;;;;6.30;99.90;;;;;;5122064;27;19930;-81
2022/01/21 09:50:10;;;;;;;;;;;6.30;99.90;;;;;;5122681;27;19934;-80
2022/01/21 09:52:37;;;;;;;;;;;6.40;99.90;;;;;;5149636;27;20367;-81
2022/01/21 09:55:03;;;;;;;;;;;6.40;99.90;;;;;;5133553;27;19934;-78
2022/01/21 09:57:29;;;;;;;;;;;6.40;99.90;;;;;;5138696;27;19963;-78
2022/01/21 09:59:55;;;;;;;;;;;6.40;99.90;;;;;;5137816;27;19966;-84
2022/01/21 10:02:25;;;;;;;;;;;6.40;99.90;;;;;;5104767;27;19919;-79
2022/01/21 10:04:52;;;;;;;;;;;6.40;99.90;;;;;;5137969;27;20417;-78
2022/01/21 10:07:19;;;;;;;;;;;6.30;99.90;;;;;;5121662;27;19945;-78
2022/01/21 10:09:46;;;;;;;;;;;6.40;99.90;;;;;;5121553;27;19953;-78
2022/01/21 10:12:12;;;;;;;;;;;6.60;99.90;;;;;;5121647;27;19999;-78
2022/01/21 10:14:38;;;;;;;;;;;6.60;99.90;;;;;;5138811;27;19923;-80
2022/01/21 10:17:05;;;;;;;;;;;6.60;99.90;;;;;;5134418;27;19923;-80
2022/01/21 10:19:31;;;;;;;;;;;6.60;99.90;;;;;;5134955;27;20014;-78
2022/01/21 10:22:04;;;;;;;;;;;6.70;99.90;;;;;;5117711;27;19934;-87
2022/01/21 10:24:30;;;;;;;;;;;6.70;99.90;;;;;;5117320;27;19928;-78
2022/01/21 10:26:56;;;;;;;;;;;6.80;99.90;;;;;;5135143;27;19949;-77
2022/01/21 10:29:22;;;;;;;;;;;6.80;99.90;;;;;;5135323;27;19924;-77
2022/01/21 10:31:57;;;;;;;;;;;6.80;99.90;;;;;;5134570;27;19930;-79
2022/01/21 10:34:27;;;;;;;;;;;6.90;99.90;;;;;;5134881;27;20029;-80
2022/01/21 10:36:57;;;;;;;;;;;6.90;99.90;;;;;;5134573;27;20069;-80
2022/01/21 10:39:30;;;;;;;;;;;6.90;99.90;;;;;;5134994;27;20379;-79
2022/01/21 10:41:59;;;;;;;;;;;6.90;99.90;;;;;;5117744;27;19923;-80
2022/01/21 10:44:28;;;;;;;;;;;6.90;99.90;;;;;;5134512;27;20482;-78
2022/01/21 10:47:01;;;;;;;;;;;6.90;99.90;;;;;;5124396;27;19976;-80
2022/01/21 10:49:27;;;;;;;;;;;6.90;99.90;;;;;;5123017;27;20357;-79
2022/01/21 10:51:52;;;;;;;;;;;6.90;99.90;;;;;;5125930;27;19934;-80
2022/01/21 10:54:20;;;;;;;;;;;7.00;99.90;;;;;;5112096;27;19932;-81
2022/01/21 10:57:01;;;;;;;;;;;7.00;99.90;;;;;;5125086;27;20047;-81
2022/01/21 10:59:43;;;;;;;;;;;7.00;99.90;;;;;;5128330;27;19959;-81
2022/01/21 11:02:09;;;;;;;;;;;7.00;99.90;;;;;;5096988;28;19934;-82
2022/01/21 11:04:39;;;;;;;;;;;7.00;99.90;;;;;;5129325;27;20014;-83
2022/01/21 11:07:05;;;;;;;;;;;7.00;99.90;;;;;;5133601;27;19976;-83
2022/01/21 11:09:30;;;;;;;;;;;7.10;99.90;;;;;;5117058;27;19927;-81
2022/01/21 11:12:07;;;;;;;;;;;7.00;99.90;;;;;;5116672;27;19970;-81
2022/01/21 11:14:34;;;;;;;;;;;7.10;99.90;;;;;;5116720;27;20007;-81
2022/01/21 11:17:16;;;;;;;;;;;7.10;99.90;;;;;;5098892;28;19999;-80
2022/01/21 11:20:00;;;;;;;;;;;7.20;99.90;;;;;;5092183;28;20015;-81
2022/01/21 11:22:25;;;;;;;;;;;7.20;99.90;;;;;;5092454;28;20303;-80
2022/01/21 11:24:51;;;;;;;;;;;7.30;99.90;;;;;;5079958;28;19930;-81
2022/01/21 11:27:17;;;;;;;;;;;7.40;99.90;;;;;;5095637;28;20326;-81
2022/01/21 11:29:44;;;;;;;;;;;7.30;99.90;;;;;;5112706;28;19932;-81
2022/01/21 11:32:10;;;;;;;;;;;7.30;99.90;;;;;;5090901;28;19963;-80
2022/01/21 11:34:36;;;;;;;;;;;7.30;99.90;;;;;;5113199;28;19923;-80
2022/01/21 11:37:02;;;;;;;;;;;7.20;99.90;;;;;;5082559;28;19994;-80
2022/01/21 11:39:29;;;;;;;;;;;7.20;99.90;;;;;;5075506;28;19924;-82
2022/01/21 11:41:56;;;;;;;;;;;7.30;99.90;;;;;;5082744;28;19924;-79
2022/01/21 11:44:25;;;;;;;;;;;7.30;99.90;;;;;;5098096;28;19924;-82
2022/01/21 11:49:27;;;;;;;;;;;7.30;99.90;;;;;;5101499;28;19934;-79
2022/01/21 11:52:11;;;;;;;;;;;7.30;99.90;;;;;;5095218;28;19947;-82
2022/01/21 11:54:37;;;;;;;;;;;7.20;99.90;;;;;;5108837;28;19928;-80
2022/01/21 11:57:05;;;;;;;;;;;7.10;99.90;;;;;;5079368;28;20330;-83
2022/01/21 11:59:34;;;;;;;;;;;7.10;99.90;;;;;;5092645;28;19928;-81
2022/01/21 12:02:15;;;;;;;;;;;7.10;99.90;;;;;;5111253;28;20376;-82
2022/01/21 12:04:51;;;;;;;;;;;7.20;99.90;;;;;;5110007;28;20321;-79
2022/01/21 12:07:28;;;;;;;;;;;7.30;99.90;;;;;;5086802;28;19924;-82
2022/01/21 12:09:55;;;;;;;;;;;7.40;99.90;;;;;;5076889;28;19932;-79
2022/01/21 12:12:22;;;;;;;;;;;7.50;99.90;;;;;;5103495;28;19934;-84
2022/01/21 12:14:53;;;;;;;;;;;7.50;99.90;;;;;;5078564;28;20294;-81
2022/01/21 12:17:46;;;;;;;;;;;7.40;99.90;;;;;;5098556;28;19977;-78
2022/01/21 12:20:12;;;;;;;;;;;7.30;99.90;;;;;;5132990;27;19927;-80
2022/01/21 12:22:38;;;;;;;;;;;7.30;99.90;;;;;;5120850;28;19923;-78
2022/01/21 12:25:04;;;;;;;;;;;7.30;99.90;;;;;;5121075;28;20006;-79
2022/01/21 12:27:31;;;;;;;;;;;7.20;99.90;;;;;;5123669;28;19931;-79
2022/01/21 12:30:15;;;;;;;;;;;7.20;99.90;;;;;;5107024;28;19924;-78
2022/01/21 12:32:55;;;;;;;;;;;7.20;99.90;;;;;;5103751;27;19982;-77
2022/01/21 12:35:20;;;;;;;;;;;7.20;99.90;;;;;;5118554;27;20427;-80
2022/01/21 12:39:05;;;;;;;;;;;7.20;99.90;;;;;;5136159;27;20076;-79
2022/01/21 12:40:52;;;;;;;;;;;7.20;99.90;;;;;;5093152;27;19955;-82
2022/01/21 12:43:36;;;;;;;;;;;7.10;99.90;;;;;;5127044;27;19970;-85
2022/01/21 12:46:03;;;;;;;;;;;7.10;99.90;;;;;;5130605;27;19934;-78
2022/01/21 12:48:34;;;;;;;;;;;7.00;99.90;;;;;;5127302;27;20366;-77
2022/01/21 12:51:15;;;;;;;;;;;7.00;99.90;;;;;;5094761;28;19924;-78
2022/01/21 12:56:44;;;;;;;;;;;7.00;99.90;;;;;;5123266;27;19924;-78
2022/01/21 12:59:17;;;;;;;;;;;7.00;99.90;;;;;;5145174;27;19923;-85
2022/01/21 13:01:43;;;;;;;;;;;7.00;99.90;;;;;;5112813;27;19935;-78
2022/01/21 13:04:38;;;;;;;;;;;7.10;99.90;;;;;;5119952;27;19934;-79
2022/01/21 13:07:07;;;;;;;;;;;7.10;99.90;;;;;;5114582;27;19924;-78
2022/01/21 13:09:35;;;;;;;;;;;7.10;99.90;;;;;;5136922;27;19931;-79
2022/01/21 13:12:09;;;;;;;;;;;7.10;99.90;;;;;;5136921;27;20271;-80
2022/01/21 13:14:36;;;;;;;;;;;7.10;99.90;;;;;;5136102;27;20387;-79
2022/01/21 13:17:01;;;;;;;;;;;7.10;99.90;;;;;;5112889;28;20425;-78
2022/01/21 13:19:52;;;;;;;;;;;7.10;99.90;;;;;;5100116;27;19924;-79
2022/01/21 13:22:19;;;;;;;;;;;7.10;99.90;;;;;;5101787;27;20015;-78
2022/01/21 13:25:08;;;;;;;;;;;7.10;99.90;;;;;;5122481;27;19924;-78
2022/01/21 13:27:55;;;;;;;;;;;7.10;99.90;;;;;;5124612;27;19920;-77
2022/01/21 13:30:22;;;;;;;;;;;7.20;99.90;;;;;;5108874;27;19946;-81
2022/01/21 13:32:57;;;;;;;;;;;7.20;99.90;;;;;;5115869;27;19965;-80
2022/01/21 13:35:24;;;;;;;;;;;7.20;99.90;;;;;;5113101;27;20010;-79
2022/01/21 13:37:59;;;;;;;;;;;7.10;99.90;;;;;;5111283;27;19930;-78
2022/01/21 13:40:25;;;;;;;;;;;7.20;99.90;;;;;;5122380;27;19923;-80
2022/01/21 13:42:50;;;;;;;;;;;7.20;99.90;;;;;;5135620;27;20394;-78
2022/01/21 13:45:16;;;;;;;;;;;7.30;99.90;;;;;;5102299;27;20042;-77
2022/01/21 13:47:48;;;;;;;;;;;7.30;99.90;;;;;;5136348;27;19927;-78
2022/01/21 13:50:13;;;;;;;;;;;7.30;99.90;;;;;;5119187;27;19933;-78
2022/01/21 13:52:45;;;;;;;;;;;7.20;99.90;;;;;;5117503;27;19927;-78
2022/01/21 13:55:22;;;;;;;;;;;7.20;99.90;;;;;;5128540;27;19923;-78
2022/01/21 13:57:48;;;;;;;;;;;7.20;99.90;;;;;;5118850;27;19924;-79
2022/01/21 14:00:23;;;;;;;;;;;7.10;99.90;;;;;;5135770;27;19928;-79
2022/01/21 14:03:01;;;;;;;;;;;7.10;99.90;;;;;;5118545;27;20434;-77
2022/01/21 14:05:40;;;;;;;;;;;7.10;99.90;;;;;;5116019;27;19927;-80
2022/01/21 14:08:10;;;;;;;;;;;7.10;99.90;;;;;;5135114;27;19923;-77
2022/01/21 14:10:35;;;;;;;;;;;7.00;99.90;;;;;;5135188;27;19924;-77
2022/01/21 14:13:01;;;;;;;;;;;6.90;99.90;;;;;;5118517;27;20005;-78
2022/01/21 14:15:30;;;;;;;;;;;6.90;99.90;;;;;;5132476;27;19938;-76
2022/01/21 14:17:56;;;;;;;;;;;6.90;99.90;;;;;;5129961;27;20374;-78
2022/01/21 14:20:21;;;;;;;;;;;6.90;99.90;;;;;;5132385;27;19931;-79
2022/01/21 14:22:47;;;;;;;;;;;6.90;99.90;;;;;;5138501;27;19923;-78
2022/01/21 14:25:13;;;;;;;;;;;6.90;99.90;;;;;;5121758;27;19978;-77
2022/01/21 14:27:45;;;;;;;;;;;6.90;99.90;;;;;;5120852;27;19966;-78
2022/01/21 14:30:12;;;;;;;;;;;6.90;99.90;;;;;;5138625;27;19930;-78
2022/01/21 14:32:40;;;;;;;;;;;6.90;99.90;;;;;;5138937;27;19923;-77
2022/01/21 14:35:30;;;;;;;;;;;6.90;99.90;;;;;;5121470;27;20421;-78
2022/01/21 14:38:01;;;;;;;;;;;6.90;99.90;;;;;;5115994;27;19930;-78
2022/01/21 14:40:31;;;;;;;;;;;6.90;99.90;;;;;;5119265;27;19945;-78
2022/01/21 14:43:02;;;;;;;;;;;6.90;99.90;;;;;;5115920;27;19923;-77
2022/01/21 14:45:28;;;;;;;;;;;6.90;99.90;;;;;;5137210;27;19959;-81
2022/01/21 14:47:54;;;;;;;;;;;6.90;99.90;;;;;;5103859;27;19966;-76
2022/01/21 14:50:23;;;;;;;;;;;6.90;99.90;;;;;;5100251;27;19989;-76
2022/01/21 14:52:50;;;;;;;;;;;6.90;99.90;;;;;;5114879;27;19923;-79
2022/01/21 14:55:16;;;;;;;;;;;6.90;99.90;;;;;;5134560;27;19927;-79
2022/01/21 14:57:53;;;;;;;;;;;6.90;99.90;;;;;;5116632;27;19949;-78
2022/01/21 15:00:24;;;;;;;;;;;6.90;99.90;;;;;;5139253;27;19927;-79
2022/01/21 15:02:59;;;;;;;;;;;6.90;99.90;;;;;;5135561;27;19985;-75
2022/01/21 15:05:28;;;;;;;;;;;6.90;99.90;;;;;;5113996;27;20363;-77
2022/01/21 15:07:54;;;;;;;;;;;6.90;99.90;;;;;;5108944;27;19924;-80
2022/01/21 15:10:34;;;;;;;;;;;6.80;99.90;;;;;;5137664;27;19929;-76
2022/01/21 15:16:05;;;;;;;;;;;6.80;99.90;;;;;;5126906;27;19949;-79
2022/01/21 15:18:31;;;;;;;;;;;6.80;99.90;;;;;;5120134;27;19923;-77
2022/01/21 15:20:57;;;;;;;;;;;6.90;99.90;;;;;;5130954;27;19976;-78
2022/01/21 15:23:23;;;;;;;;;;;6.90;99.90;;;;;;5111183;27;19927;-78
2022/01/21 15:25:48;;;;;;;;;;;6.80;99.90;;;;;;5132067;27;19923;-78